Time;durP1;ratioP1;P1;durP2;ratioP2;P2;SDS_P1;SDS_P2;PMS_P1;PMS_P2;Temp;Humidity;BMP_temperature;BMP_pressure;BME280_temperature;BME280_humidity;BME280_pressure;Samples;Min_cycle;Max_cycle;Signal;HPM_P1;HPM_P2
2023/02/23 00:02:05;;;;;;;21.52;5.85;;;7.80;95.00;;;;;;4677166;30;20195;-79
2023/02/23 00:04:33;;;;;;;13.75;4.93;;;7.70;94.80;;;;;;4692035;30;20152;-80
2023/02/23 00:07:01;;;;;;;15.13;5.25;;;7.80;94.90;;;;;;4678006;30;20049;-79
2023/02/23 00:09:34;;;;;;;14.10;5.13;;;7.80;94.90;;;;;;4686740;30;20075;-80
2023/02/23 00:12:06;;;;;;;14.88;5.25;;;7.70;94.90;;;;;;4702585;30;20619;-79
2023/02/23 00:14:37;;;;;;;16.35;5.43;;;7.70;95.00;;;;;;4664291;30;20061;-80
2023/02/23 00:17:12;;;;;;;16.70;5.65;;;7.70;95.00;;;;;;4688132;30;20148;-79
2023/02/23 00:19:42;;;;;;;17.00;5.75;;;7.70;95.10;;;;;;4689290;30;20087;-80
2023/02/23 00:22:10;;;;;;;14.10;5.18;;;7.70;95.00;;;;;;4686988;30;20071;-79
2023/02/23 00:24:39;;;;;;;16.20;5.43;;;7.60;95.20;;;;;;4690464;30;20699;-79
2023/02/23 00:27:06;;;;;;;13.75;4.88;;;7.60;95.30;;;;;;4701706;30;21849;-79
2023/02/23 00:29:38;;;;;;;13.35;5.38;;;7.60;95.30;;;;;;4709823;30;20543;-79
2023/02/23 00:32:05;;;;;;;14.52;5.65;;;7.60;95.40;;;;;;4711408;30;20056;-80
2023/02/23 00:34:35;;;;;;;14.95;4.80;;;7.60;95.30;;;;;;4703914;30;20893;-79
2023/02/23 00:37:03;;;;;;;16.13;5.20;;;7.60;95.50;;;;;;4684852;30;20056;-79
2023/02/23 00:39:30;;;;;;;16.83;5.93;;;7.60;95.40;;;;;;4671954;30;20053;-79
2023/02/23 00:42:01;;;;;;;13.00;5.55;;;7.60;95.40;;;;;;4694698;30;20056;-79
2023/02/23 00:44:30;;;;;;;20.90;6.22;;;7.50;95.40;;;;;;4692992;30;20064;-79
2023/02/23 00:46:57;;;;;;;14.63;5.47;;;7.50;95.20;;;;;;4687938;30;20052;-79
2023/02/23 00:49:25;;;;;;;15.00;5.13;;;7.50;95.30;;;;;;4690303;30;22832;-79
2023/02/23 00:51:53;;;;;;;16.85;5.90;;;7.50;95.40;;;;;;4689098;30;20060;-80
2023/02/23 00:54:20;;;;;;;14.25;6.68;;;7.50;95.10;;;;;;4688868;30;20068;-79
2023/02/23 00:56:48;;;;;;;16.85;5.72;;;7.40;95.30;;;;;;4705943;30;20057;-79
2023/02/23 00:59:16;;;;;;;15.80;6.07;;;7.40;95.40;;;;;;4689692;30;20599;-79
2023/02/23 01:01:43;;;;;;;17.50;5.65;;;7.50;95.60;;;;;;4695383;30;20061;-79
2023/02/23 01:04:12;;;;;;;14.75;6.25;;;7.40;95.40;;;;;;4685104;30;20687;-79
2023/02/23 01:06:40;;;;;;;16.23;6.18;;;7.40;95.40;;;;;;4671405;30;21361;-79
2023/02/23 01:09:14;;;;;;;13.75;4.80;;;7.40;95.50;;;;;;4678877;30;20057;-80
2023/02/23 01:11:45;;;;;;;19.60;5.55;;;7.40;95.40;;;;;;4688830;30;20056;-79
2023/02/23 01:14:13;;;;;;;16.40;5.47;;;7.40;95.60;;;;;;4691856;30;20153;-79
2023/02/23 01:16:41;;;;;;;16.27;5.60;;;7.40;95.50;;;;;;4693988;30;22431;-79
2023/02/23 01:19:09;;;;;;;15.50;6.20;;;7.30;95.40;;;;;;4686429;30;20064;-79
2023/02/23 01:21:40;;;;;;;14.10;5.50;;;7.20;95.40;;;;;;4691477;30;20064;-79
2023/02/23 01:24:08;;;;;;;14.25;5.10;;;7.30;95.30;;;;;;4668437;30;20731;-79
2023/02/23 01:26:38;;;;;;;20.55;6.07;;;7.20;95.40;;;;;;4673339;30;20442;-79
2023/02/23 01:29:13;;;;;;;18.88;6.60;;;7.30;95.30;;;;;;4686804;30;20522;-79
2023/02/23 01:31:43;;;;;;;17.65;5.32;;;7.20;95.20;;;;;;4671478;30;20143;-79
2023/02/23 01:34:13;;;;;;;13.93;5.50;;;7.30;95.40;;;;;;4669884;30;20746;-80
2023/02/23 01:36:42;;;;;;;15.68;5.35;;;7.20;95.20;;;;;;4689547;30;20748;-79
2023/02/23 01:39:16;;;;;;;17.63;6.47;;;7.20;95.20;;;;;;4662154;30;20057;-80
2023/02/23 01:41:44;;;;;;;15.93;4.78;;;7.20;95.20;;;;;;4673335;30;20099;-79
2023/02/23 01:44:11;;;;;;;22.23;5.93;;;7.20;95.40;;;;;;4687821;30;20104;-80
2023/02/23 01:46:46;;;;;;;15.13;6.07;;;7.10;95.30;;;;;;4679328;30;20060;-79
2023/02/23 01:49:27;;;;;;;16.27;5.22;;;7.20;95.30;;;;;;4689236;30;22451;-79
2023/02/23 01:51:57;;;;;;;13.65;4.82;;;7.90;95.40;;;;;;4708267;30;20158;-79
2023/02/23 01:54:30;;;;;;;14.07;4.72;;;7.20;95.20;;;;;;4700574;30;20144;-79
2023/02/23 01:57:00;;;;;;;;;;;7.20;95.30;;;;;;4681055;30;20716;-79
2023/02/23 01:59:40;;;;;;;16.30;5.10;;;7.20;95.30;;;;;;4707826;30;19977;-80
2023/02/23 02:02:08;;;;;;;14.05;4.97;;;7.20;95.20;;;;;;4688257;30;20330;-79
2023/02/23 02:04:44;;;;;;;18.33;5.22;;;7.20;95.40;;;;;;4680533;30;20064;-79
2023/02/23 02:07:15;;;;;;;14.07;5.32;;;6.60;95.20;;;;;;4714075;30;20504;-79
2023/02/23 02:12:33;;;;;;;16.17;5.47;;;7.20;95.10;;;;;;4675371;30;20057;-79
2023/02/23 02:15:03;;;;;;;13.55;4.78;;;7.20;95.20;;;;;;4689196;30;21030;-79
2023/02/23 02:17:50;;;;;;;14.60;4.97;;;7.10;95.00;;;;;;4691429;30;20049;-79
2023/02/23 02:20:31;;;;;;;18.80;5.10;;;7.20;95.00;;;;;;4690257;30;20071;-79
2023/02/23 02:23:09;;;;;;;17.65;4.47;;;7.10;95.10;;;;;;4676712;30;20949;-79
2023/02/23 02:25:37;;;;;;;13.50;4.35;;;7.10;95.30;;;;;;4675024;30;20060;-81
2023/02/23 02:28:22;;;;;;;15.63;5.68;;;7.10;95.40;;;;;;4700384;30;20056;-79
2023/02/23 02:31:02;;;;;;;12.35;4.45;;;7.10;95.30;;;;;;4691060;30;20738;-79
2023/02/23 02:33:57;;;;;;;10.40;3.83;;;7.10;95.30;;;;;;4687493;30;20441;-79
2023/02/23 02:37:13;;;;;;;16.38;5.72;;;7.20;95.50;;;;;;4676298;30;20107;-79
2023/02/23 02:40:13;;;;;;;17.00;4.25;;;7.10;94.70;;;;;;4689787;30;20057;-79
2023/02/23 02:43:11;;;;;;;12.85;4.60;;;7.10;94.90;;;;;;4681553;30;20725;-79
2023/02/23 02:46:12;;;;;;;11.82;4.32;;;7.00;94.90;;;;;;4688699;30;20455;-79
2023/02/23 02:48:44;;;;;;;14.73;4.88;;;7.00;94.90;;;;;;4688858;30;20068;-79
2023/02/23 02:51:27;;;;;;;16.63;4.83;;;7.00;95.00;;;;;;4676834;30;20099;-79
2023/02/23 02:54:11;;;;;;;11.07;4.60;;;7.10;95.00;;;;;;4691303;30;20317;-79
2023/02/23 02:56:41;;;;;;;10.85;5.00;;;7.00;95.00;;;;;;4667761;30;20060;-79
2023/02/23 04:18:35;;;;;;;25.13;7.50;;;6.80;95.90;;;;;;4676729;30;20387;-79
2023/02/23 04:21:04;;;;;;;19.40;7.32;;;6.70;95.90;;;;;;4688498;30;20422;-79
2023/02/23 04:23:31;;;;;;;22.67;7.30;;;6.80;95.90;;;;;;4688637;30;20108;-79
2023/02/23 04:25:59;;;;;;;18.35;6.10;;;6.80;95.80;;;;;;4674874;30;20065;-78
2023/02/23 04:28:28;;;;;;;17.77;7.07;;;6.80;96.10;;;;;;4695189;30;20083;-78
2023/02/23 04:30:55;;;;;;;20.48;6.57;;;6.70;96.00;;;;;;4676149;30;20052;-78
2023/02/23 04:33:24;;;;;;;20.75;6.72;;;6.80;96.00;;;;;;4660473;30;20048;-78
2023/02/23 04:35:52;;;;;;;23.42;7.03;;;6.80;95.90;;;;;;4689411;30;20049;-78
2023/02/23 04:38:20;;;;;;;20.20;6.40;;;6.80;96.00;;;;;;4695467;30;20078;-78
2023/02/23 04:40:48;;;;;;;16.95;5.95;;;6.90;96.20;;;;;;4675302;30;22422;-78
2023/02/23 04:43:15;;;;;;;13.23;6.00;;;6.80;95.80;;;;;;4660521;30;20164;-78
2023/02/23 04:45:44;;;;;;;17.48;6.40;;;6.80;95.80;;;;;;4664895;30;20056;-80
2023/02/23 04:48:11;;;;;;;17.33;6.28;;;6.40;95.70;;;;;;4694825;30;20844;-81
2023/02/23 04:50:38;;;;;;;17.77;6.65;;;6.80;95.70;;;;;;4670344;30;20987;-80
2023/02/23 04:53:06;;;;;;;20.27;6.43;;;6.70;95.30;;;;;;4662274;30;20057;-80
2023/02/23 04:55:36;;;;;;;18.30;6.28;;;6.70;95.20;;;;;;4674731;30;22659;-78
2023/02/23 04:58:04;;;;;;;18.67;6.18;;;6.70;95.10;;;;;;4674913;30;20157;-78
2023/02/23 05:00:32;;;;;;;17.13;7.10;;;6.70;95.20;;;;;;4665181;30;20837;-78
2023/02/23 05:03:00;;;;;;;27.95;7.00;;;6.70;95.10;;;;;;4681017;30;20057;-78
2023/02/23 05:05:27;;;;;;;19.30;6.15;;;6.70;95.10;;;;;;4677151;30;20340;-78
2023/02/23 05:07:55;;;;;;;20.40;6.03;;;6.70;95.20;;;;;;4664586;30;20118;-78
2023/02/23 05:10:22;;;;;;;16.38;6.28;;;6.90;94.90;;;;;;4660546;30;20053;-78
2023/02/23 05:12:50;;;;;;;15.73;6.10;;;6.90;95.20;;;;;;4664358;30;20053;-78
2023/02/23 05:15:17;;;;;;;14.77;5.03;;;6.70;94.90;;;;;;4674258;30;22417;-78
2023/02/23 05:17:45;;;;;;;20.50;6.15;;;6.70;95.00;;;;;;4691448;30;22231;-78
2023/02/23 05:20:13;;;;;;;16.40;4.50;;;6.70;95.10;;;;;;4676795;30;20057;-78
2023/02/23 05:22:41;;;;;;;17.63;6.45;;;6.60;95.10;;;;;;4673088;30;20116;-78
2023/02/23 05:25:09;;;;;;;19.65;6.85;;;6.80;95.10;;;;;;4692908;30;20060;-78
2023/02/23 05:27:36;;;;;;;15.38;6.28;;;6.70;95.00;;;;;;4654721;30;20159;-80
2023/02/23 05:30:06;;;;;;;15.48;6.70;;;6.70;95.20;;;;;;4668427;30;20550;-80
2023/02/23 05:32:33;;;;;;;15.43;6.38;;;6.60;95.10;;;;;;4658404;30;20193;-80
2023/02/23 05:35:01;;;;;;;17.45;6.28;;;6.70;95.10;;;;;;4679627;30;20055;-81
2023/02/23 05:37:29;;;;;;;17.80;6.97;;;6.70;94.90;;;;;;4665435;30;20053;-80
2023/02/23 05:39:59;;;;;;;12.63;5.97;;;6.70;95.20;;;;;;4656869;30;20107;-80
2023/02/23 05:42:26;;;;;;;15.40;6.07;;;6.70;95.00;;;;;;4681921;30;20749;-80
2023/02/23 05:44:53;;;;;;;19.25;6.72;;;6.70;95.10;;;;;;4673444;30;20518;-80
2023/02/23 05:47:20;;;;;;;22.08;7.60;;;6.70;95.10;;;;;;4679451;30;20053;-80
2023/02/23 05:49:47;;;;;;;20.10;7.35;;;6.70;95.10;;;;;;4686895;30;20576;-80
2023/02/23 05:52:15;;;;;;;17.58;6.38;;;6.80;95.20;;;;;;4685470;30;20536;-80
2023/02/23 05:54:42;;;;;;;15.27;5.78;;;6.80;95.10;;;;;;4671837;30;20056;-81
2023/02/23 05:57:09;;;;;;;24.70;7.10;;;6.80;95.40;;;;;;4681704;30;20057;-80
2023/02/23 05:59:36;;;;;;;19.25;6.50;;;6.80;95.20;;;;;;4696821;30;20418;-80
2023/02/23 06:02:04;;;;;;;16.25;6.40;;;6.90;95.10;;;;;;4673256;30;20045;-80
2023/02/23 06:04:32;;;;;;;19.27;6.35;;;6.90;95.20;;;;;;4699213;30;20524;-80
2023/02/23 06:06:59;;;;;;;18.50;6.18;;;6.90;95.20;;;;;;4667731;30;20065;-81
2023/02/23 06:09:26;;;;;;;20.60;6.78;;;6.90;95.30;;;;;;4696337;30;20068;-81
2023/02/23 06:11:54;;;;;;;22.52;7.25;;;6.80;95.40;;;;;;4689262;30;20048;-81
2023/02/23 06:14:21;;;;;;;15.90;6.68;;;6.80;95.40;;;;;;4654142;30;20057;-80
2023/02/23 06:16:48;;;;;;;16.55;6.85;;;6.90;95.70;;;;;;4677530;30;20061;-80
2023/02/23 06:19:15;;;;;;;19.40;7.50;;;6.90;95.60;;;;;;4698386;30;20691;-79
2023/02/23 06:21:42;;;;;;;27.10;8.20;;;6.90;95.50;;;;;;4685303;30;20049;-80
2023/02/23 06:24:11;;;;;;;18.95;7.55;;;6.90;95.40;;;;;;4681896;30;20060;-79
2023/02/23 06:26:38;;;;;;;20.38;7.15;;;6.80;95.30;;;;;;4690001;30;20548;-79
2023/02/23 06:29:05;;;;;;;21.13;7.15;;;6.80;95.20;;;;;;4695694;30;20055;-79
2023/02/23 06:31:32;;;;;;;16.42;6.78;;;6.90;95.20;;;;;;4698426;30;20086;-79
2023/02/23 06:33:59;;;;;;;18.92;7.30;;;6.90;95.30;;;;;;4710785;30;20081;-79
2023/02/23 06:36:27;;;;;;;18.52;6.78;;;6.90;94.90;;;;;;4678079;30;20045;-80
2023/02/23 06:38:58;;;;;;;17.70;7.47;;;6.90;94.90;;;;;;4703571;30;20056;-80
2023/02/23 06:41:26;;;;;;;21.00;8.48;;;6.90;94.70;;;;;;4726356;30;20067;-80
2023/02/23 06:43:53;;;;;;;23.63;6.97;;;6.90;94.50;;;;;;4725467;30;22897;-80
2023/02/23 06:46:20;;;;;;;18.95;7.00;;;6.90;94.50;;;;;;4736128;30;20064;-80
2023/02/23 06:48:48;;;;;;;17.52;6.68;;;6.90;94.80;;;;;;4722023;30;22268;-80
2023/02/23 06:51:15;;;;;;;21.35;8.25;;;6.90;94.40;;;;;;4731992;30;21678;-80
2023/02/23 06:53:42;;;;;;;22.42;7.70;;;6.90;94.30;;;;;;4696373;30;20923;-80
2023/02/23 06:56:09;;;;;;;18.95;6.57;;;7.00;94.40;;;;;;4666716;30;20074;-80
2023/02/23 06:58:39;;;;;;;17.20;6.05;;;7.00;94.20;;;;;;4693605;30;20064;-80
2023/02/23 07:01:06;;;;;;;15.60;5.95;;;7.00;94.20;;;;;;4682575;30;20060;-80
2023/02/23 07:03:34;;;;;;;18.73;6.57;;;7.00;93.80;;;;;;4692807;30;20065;-80
2023/02/23 07:06:04;;;;;;;17.20;6.40;;;7.00;93.50;;;;;;4696382;30;20072;-81
2023/02/23 07:08:33;;;;;;;20.27;6.85;;;7.00;93.70;;;;;;4675073;30;20217;-80
2023/02/23 07:11:12;;;;;;;20.13;6.95;;;7.00;93.20;;;;;;4680359;30;20532;-80
2023/02/23 07:13:41;;;;;;;18.02;6.95;;;7.00;93.10;;;;;;4709895;30;20418;-80
2023/02/23 07:16:08;;;;;;;14.32;5.88;;;7.10;93.60;;;;;;4713553;30;20498;-81
2023/02/23 07:18:35;;;;;;;15.20;6.90;;;7.10;93.60;;;;;;4700876;30;20218;-81
2023/02/23 07:21:03;;;;;;;20.33;6.75;;;7.10;93.10;;;;;;4682447;30;20143;-80
2023/02/23 07:23:30;;;;;;;25.27;6.95;;;7.10;93.00;;;;;;4693192;30;20154;-80
2023/02/23 07:25:59;;;;;;;14.68;6.90;;;7.10;93.00;;;;;;4691601;30;20127;-80
2023/02/23 07:28:27;;;;;;;21.42;7.63;;;7.20;93.10;;;;;;4677886;30;20061;-80
2023/02/23 07:30:58;;;;;;;17.95;7.45;;;7.10;92.60;;;;;;4689796;30;20053;-80
2023/02/23 07:33:25;;;;;;;17.40;5.85;;;7.20;92.60;;;;;;4663823;30;20069;-80
2023/02/23 07:35:52;;;;;;;22.83;6.75;;;7.20;92.60;;;;;;4675465;30;20057;-81
2023/02/23 07:38:19;;;;;;;18.85;6.32;;;7.20;92.60;;;;;;4705273;30;20063;-80
2023/02/23 07:40:49;;;;;;;14.40;6.32;;;7.20;92.50;;;;;;4693753;30;20052;-81
2023/02/23 07:43:16;;;;;;;16.35;6.63;;;7.30;92.80;;;;;;4689272;30;20059;-80
2023/02/23 07:45:43;;;;;;;17.73;6.45;;;7.40;92.40;;;;;;4699559;30;20089;-80
2023/02/23 07:48:12;;;;;;;16.55;6.40;;;7.30;92.00;;;;;;4689515;30;20068;-80
2023/02/23 07:50:41;;;;;;;13.50;5.25;;;7.40;92.00;;;;;;4703307;30;20096;-81
2023/02/23 07:53:08;;;;;;;13.07;5.60;;;7.40;92.00;;;;;;4710767;30;20078;-82
2023/02/23 07:55:39;;;;;;;16.58;5.80;;;7.40;92.40;;;;;;4721122;30;20064;-81
2023/02/23 07:58:07;;;;;;;16.27;6.10;;;7.50;92.30;;;;;;4686124;30;20140;-81
2023/02/23 08:00:38;;;;;;;18.00;6.47;;;7.40;91.70;;;;;;4702281;30;20056;-81
2023/02/23 08:03:06;;;;;;;17.42;5.53;;;7.50;91.50;;;;;;4711724;30;20065;-81
2023/02/23 08:05:35;;;;;;;16.65;5.78;;;7.50;91.30;;;;;;4693212;30;20061;-81
2023/02/23 08:08:02;;;;;;;12.68;5.55;;;7.50;91.50;;;;;;4689293;30;20073;-80
2023/02/23 08:10:29;;;;;;;12.18;5.38;;;7.60;91.70;;;;;;4693482;30;22350;-81
2023/02/23 08:12:57;;;;;;;16.27;5.63;;;7.60;91.50;;;;;;4656890;30;20099;-80
2023/02/23 08:15:24;;;;;;;17.00;5.82;;;7.70;91.60;;;;;;4689568;30;20642;-80
2023/02/23 08:17:51;;;;;;;16.88;5.70;;;7.70;91.30;;;;;;4689355;30;20790;-81
2023/02/23 08:20:18;;;;;;;19.77;6.38;;;7.80;91.20;;;;;;4694902;30;20828;-81
2023/02/23 08:22:46;;;;;;;21.88;6.63;;;7.80;91.30;;;;;;4688804;30;20590;-80
2023/02/23 08:25:16;;;;;;;17.70;6.93;;;7.90;91.00;;;;;;4706718;30;20057;-80
2023/02/23 08:27:44;;;;;;;16.63;5.35;;;8.00;90.80;;;;;;4690877;30;20095;-79
2023/02/23 08:30:13;;;;;;;17.95;6.15;;;7.90;90.40;;;;;;4677549;30;20880;-80
2023/02/23 08:32:40;;;;;;;15.57;6.38;;;8.00;90.40;;;;;;4691444;30;20201;-80
2023/02/23 08:35:09;;;;;;;17.17;5.57;;;8.00;90.50;;;;;;4696333;30;20425;-80
2023/02/23 08:37:36;;;;;;;19.20;7.38;;;8.00;90.40;;;;;;4691715;30;20723;-80
2023/02/23 08:40:04;;;;;;;17.58;7.22;;;8.10;90.30;;;;;;4691134;30;20057;-80
2023/02/23 08:42:31;;;;;;;14.27;4.57;;;8.10;90.20;;;;;;4693399;30;20059;-81
2023/02/23 08:45:00;;;;;;;16.42;5.57;;;8.10;90.10;;;;;;4678589;30;20079;-81
2023/02/23 08:47:28;;;;;;;15.27;5.20;;;8.20;90.30;;;;;;4693609;30;20069;-81
2023/02/23 08:49:55;;;;;;;15.02;6.35;;;8.20;90.20;;;;;;4693824;30;20059;-79
2023/02/23 08:52:24;;;;;;;13.32;5.38;;;8.10;88.60;;;;;;4693306;30;20065;-80
2023/02/23 08:54:51;;;;;;;14.60;5.00;;;8.60;88.90;;;;;;4691625;30;20057;-80
2023/02/23 08:57:18;;;;;;;16.40;5.20;;;8.20;88.40;;;;;;4691229;30;20065;-79
2023/02/23 08:59:46;;;;;;;17.02;6.03;;;8.20;88.20;;;;;;4677253;30;20061;-80
2023/02/23 09:02:14;;;;;;;15.75;5.32;;;8.20;88.10;;;;;;4694261;30;20071;-80
2023/02/23 09:04:41;;;;;;;14.95;4.45;;;8.30;88.50;;;;;;4706200;30;20590;-80
2023/02/23 09:07:13;;;;;;;14.25;4.60;;;8.40;88.20;;;;;;4707583;30;20568;-81
2023/02/23 09:09:40;;;;;;;16.70;4.53;;;8.40;88.80;;;;;;4680624;30;22495;-80
2023/02/23 09:12:07;;;;;;;14.93;5.53;;;8.50;87.40;;;;;;4693433;30;20061;-81
2023/02/23 09:14:35;;;;;;;13.27;5.82;;;8.50;88.00;;;;;;4682078;30;20509;-80
2023/02/23 09:17:03;;;;;;;13.60;5.30;;;8.50;87.80;;;;;;4695937;30;20413;-81
2023/02/23 09:19:30;;;;;;;15.43;5.28;;;8.60;87.40;;;;;;4694055;30;20065;-81
2023/02/23 09:21:57;;;;;;;14.23;5.13;;;8.60;87.90;;;;;;4712961;30;20536;-81
2023/02/23 09:24:24;;;;;;;19.52;5.80;;;8.70;87.10;;;;;;4721873;30;20048;-81
2023/02/23 09:26:52;;;;;;;12.02;5.53;;;8.70;86.60;;;;;;4691218;30;20060;-81
2023/02/23 09:29:19;;;;;;;13.07;5.63;;;8.90;86.30;;;;;;4716375;30;20057;-80
2023/02/23 09:31:47;;;;;;;13.80;5.28;;;8.90;86.50;;;;;;4671300;30;20057;-81
2023/02/23 09:34:14;;;;;;;17.70;5.78;;;8.90;86.10;;;;;;4703120;30;20421;-81
2023/02/23 09:36:41;;;;;;;14.45;4.82;;;9.00;86.50;;;;;;4700456;30;20064;-80
2023/02/23 09:39:08;;;;;;;9.00;4.60;;;9.00;86.00;;;;;;4698267;30;20084;-81
2023/02/23 09:42:07;;;;;;;11.25;4.20;;;8.20;84.90;;;;;;4697355;30;22865;-81
2023/02/23 09:44:49;;;;;;;18.55;4.63;;;9.00;85.00;;;;;;4698043;30;20087;-80
2023/02/23 09:47:20;;;;;;;13.27;4.40;;;9.10;84.60;;;;;;4668309;30;20052;-81
2023/02/23 09:49:48;;;;;;;15.43;4.43;;;9.10;83.70;;;;;;4685930;30;20969;-81
2023/02/23 09:52:21;;;;;;;11.65;5.00;;;9.20;84.10;;;;;;4709636;30;20049;-81
2023/02/23 09:54:48;;;;;;;13.07;4.72;;;9.20;84.10;;;;;;4690021;30;20057;-80
2023/02/23 09:57:32;;;;;;;12.70;4.80;;;9.30;84.10;;;;;;4693163;30;22178;-80
2023/02/23 09:59:59;;;;;;;10.60;4.60;;;9.30;84.70;;;;;;4695032;30;20126;-79
2023/02/23 10:02:38;;;;;;;15.07;4.53;;;9.40;84.70;;;;;;4700783;30;22048;-80
2023/02/23 10:05:11;;;;;;;13.07;5.05;;;9.40;83.90;;;;;;4699998;30;20151;-81
2023/02/23 10:07:41;;;;;;;18.63;6.50;;;9.40;83.90;;;;;;4685026;30;20067;-81
2023/02/23 10:10:26;;;;;;;12.15;4.68;;;9.50;83.80;;;;;;4698379;30;20110;-81
2023/02/23 10:13:21;;;;;;;14.25;4.75;;;9.50;83.30;;;;;;4697124;30;20056;-81
2023/02/23 10:15:54;;;;;;;10.85;4.47;;;9.50;83.90;;;;;;4713416;30;20044;-81
2023/02/23 10:18:49;;;;;;;13.25;5.00;;;9.50;83.50;;;;;;4683815;30;20687;-81
2023/02/23 10:21:39;;;;;;;11.77;4.60;;;9.60;82.80;;;;;;4679117;30;20092;-81
2023/02/23 10:24:10;;;;;;;11.90;4.65;;;9.70;83.00;;;;;;4701642;30;20828;-81
2023/02/23 10:26:48;;;;;;;14.85;5.68;;;9.80;82.70;;;;;;4687529;30;20108;-81
2023/02/23 10:29:27;;;;;;;12.30;4.53;;;9.90;83.30;;;;;;4696933;30;20071;-81
2023/02/23 10:32:32;;;;;;;11.55;4.20;;;9.90;82.60;;;;;;4696204;30;20099;-81
2023/02/23 10:35:00;;;;;;;13.02;4.47;;;9.90;81.60;;;;;;4692844;30;20056;-81
2023/02/23 10:37:27;;;;;;;12.57;5.20;;;9.90;81.80;;;;;;4696838;30;20509;-81
2023/02/23 10:39:54;;;;;;;15.73;5.63;;;10.00;82.70;;;;;;4685691;30;20057;-80
2023/02/23 10:42:27;;;;;;;16.60;5.88;;;10.00;81.30;;;;;;4683345;30;20163;-81
2023/02/23 10:44:57;;;;;;;24.25;11.38;;;10.00;82.50;;;;;;4699248;30;20325;-81
2023/02/23 10:47:32;;;;;;;14.98;8.00;;;10.00;81.10;;;;;;4716443;30;20065;-81
2023/02/23 10:49:59;;;;;;;13.82;5.30;;;10.00;81.60;;;;;;4714759;30;20146;-81
2023/02/23 10:52:40;;;;;;;15.52;6.47;;;10.00;82.70;;;;;;4696972;30;20056;-81
2023/02/23 10:55:25;;;;;;;13.30;7.20;;;10.50;81.60;;;;;;4696922;30;20061;-81
2023/02/23 10:58:17;;;;;;;15.93;5.65;;;10.20;81.50;;;;;;4704315;30;20049;-81
2023/02/23 11:01:05;;;;;;;11.43;5.22;;;10.20;80.50;;;;;;4697061;30;20056;-80
2023/02/23 11:03:44;;;;;;;11.25;4.78;;;10.20;80.00;;;;;;4676821;30;20098;-81
2023/02/23 11:06:34;;;;;;;12.23;5.05;;;10.20;79.60;;;;;;4689080;30;20203;-81
2023/02/23 11:09:26;;;;;;;13.85;5.07;;;10.30;80.10;;;;;;4680147;30;20056;-80
2023/02/23 11:12:23;;;;;;;16.35;5.10;;;10.40;79.60;;;;;;4705521;30;20064;-81
2023/02/23 11:14:53;;;;;;;10.52;4.78;;;10.40;79.00;;;;;;4696320;30;20198;-80
2023/02/23 11:17:35;;;;;;;12.38;4.85;;;10.30;78.00;;;;;;4691509;30;20064;-81
2023/02/23 11:20:17;;;;;;;9.80;3.40;;;10.40;77.80;;;;;;4662997;30;20086;-81
2023/02/23 11:22:45;;;;;;;9.95;3.72;;;10.50;78.90;;;;;;4696409;30;20492;-81
2023/02/23 11:25:28;;;;;;;16.23;5.53;;;10.50;78.60;;;;;;4708109;30;20424;-81
2023/02/23 11:27:57;;;;;;;10.02;3.63;;;10.60;78.40;;;;;;4684241;30;20157;-81
2023/02/23 11:30:33;;;;;;;11.07;4.13;;;10.60;78.40;;;;;;4710354;30;20072;-82
2023/02/23 11:33:09;;;;;;;11.77;3.92;;;10.60;77.60;;;;;;4718292;30;20152;-82
2023/02/23 11:35:37;;;;;;;11.52;3.97;;;10.60;78.70;;;;;;4714430;30;20205;-81
2023/02/23 11:38:23;;;;;;;11.63;4.18;;;10.60;77.40;;;;;;4685780;30;20583;-81
2023/02/23 11:41:06;;;;;;;12.60;3.45;;;10.60;78.60;;;;;;4696206;30;20072;-81
2023/02/23 11:43:34;;;;;;;14.07;3.65;;;10.60;78.40;;;;;;4704119;30;20063;-81
2023/02/23 11:46:02;;;;;;;11.85;3.35;;;10.50;79.50;;;;;;4691686;30;20060;-79
2023/02/23 11:48:53;;;;;;;14.93;4.22;;;10.50;78.60;;;;;;4682334;30;20135;-81
2023/02/23 11:51:32;;;;;;;10.48;4.43;;;10.50;79.10;;;;;;4693106;30;20067;-81
2023/02/23 11:54:01;;;;;;;11.52;6.07;;;10.40;78.10;;;;;;4693850;30;20526;-81
2023/02/23 11:56:33;;;;;;;14.52;4.10;;;10.50;78.10;;;;;;4691525;30;20059;-81
2023/02/23 11:59:12;;;;;;;13.88;6.53;;;10.50;78.10;;;;;;4704342;30;20056;-81
2023/02/23 12:01:51;;;;;;;13.73;7.85;;;10.50;78.20;;;;;;4693503;30;20219;-81
2023/02/23 12:04:40;;;;;;;11.52;4.32;;;10.40;77.80;;;;;;4681948;30;20061;-81
2023/02/23 12:07:40;;;;;;;12.77;5.50;;;10.40;78.40;;;;;;4693500;30;20045;-81
2023/02/23 12:10:20;;;;;;;12.55;4.32;;;10.40;78.20;;;;;;4706785;30;20071;-81
2023/02/23 12:12:53;;;;;;;14.75;3.67;;;10.40;79.70;;;;;;4707064;30;20418;-82
2023/02/23 12:15:33;;;;;;;11.38;4.45;;;10.40;79.40;;;;;;4700858;30;20064;-81
2023/02/23 12:18:10;;;;;;;13.48;5.07;;;10.30;79.00;;;;;;4710058;30;20110;-81
2023/02/23 12:20:42;;;;;;;11.35;4.10;;;10.30;78.40;;;;;;4695587;30;20080;-81
2023/02/23 12:23:14;;;;;;;11.68;5.15;;;10.40;79.20;;;;;;4687875;30;20180;-81
2023/02/23 12:25:48;;;;;;;10.63;4.25;;;10.30;78.60;;;;;;4709525;30;20068;-81
2023/02/23 12:28:35;;;;;;;11.02;4.18;;;9.40;79.10;;;;;;4685231;30;20065;-81
2023/02/23 12:31:41;;;;;;;13.25;3.80;;;10.40;79.30;;;;;;4692219;30;20060;-81
2023/02/23 12:34:14;;;;;;;11.07;4.28;;;10.50;80.10;;;;;;4689707;30;20057;-81
2023/02/23 12:36:49;;;;;;;13.60;4.80;;;10.50;78.80;;;;;;4664846;30;20257;-80
2023/02/23 12:39:32;;;;;;;9.68;4.45;;;10.60;79.00;;;;;;4645020;30;23037;-81
2023/02/23 12:42:05;;;;;;;;;;;10.70;79.90;;;;;;4671707;30;20863;-81
2023/02/23 12:44:42;;;;;;;13.60;5.43;;;10.80;79.00;;;;;;4664802;30;19942;-80
2023/02/23 12:47:43;;;;;;;16.48;4.43;;;10.70;78.50;;;;;;4655242;30;20065;-81
2023/02/23 12:50:32;;;;;;;10.88;4.32;;;10.80;78.80;;;;;;4679783;30;20072;-82
2023/02/23 12:53:11;;;;;;;10.98;4.47;;;10.90;80.20;;;;;;4681891;30;20154;-82
2023/02/23 12:55:53;;;;;;;13.23;4.28;;;10.90;79.30;;;;;;4673687;30;20057;-82
2023/02/23 12:58:20;;;;;;;12.80;4.83;;;10.90;79.80;;;;;;4675167;30;20049;-81
2023/02/23 13:00:54;;;;;;;12.98;4.72;;;10.90;78.70;;;;;;4700822;30;20306;-81
2023/02/23 13:03:36;;;;;;;11.75;4.68;;;10.90;79.50;;;;;;4687007;30;20725;-81
2023/02/23 13:06:46;;;;;;;10.45;4.05;;;11.00;79.00;;;;;;4694469;30;20076;-81
2023/02/23 13:09:25;;;;;;;10.18;4.32;;;11.00;78.40;;;;;;4617068;30;20738;-81
2023/02/23 13:12:06;;;;;;;15.30;6.93;;;10.90;78.50;;;;;;4688037;30;20433;-81
2023/02/23 13:14:47;;;;;;;18.13;8.48;;;10.90;79.00;;;;;;4698388;30;20697;-81
2023/02/23 13:17:35;;;;;;;60.60;29.27;;;10.90;79.90;;;;;;4691305;30;20525;-81
2023/02/23 13:20:19;;;;;;;33.33;15.65;;;10.80;78.80;;;;;;4705676;30;20069;-81
2023/02/23 13:23:00;;;;;;;21.70;8.60;;;10.80;80.20;;;;;;4692399;30;20306;-81
2023/02/23 13:25:50;;;;;;;78.35;30.60;;;10.90;80.40;;;;;;4704908;30;20200;-81
2023/02/23 13:28:27;;;;;;;15.80;6.32;;;10.80;79.80;;;;;;4686138;30;20190;-81
2023/02/23 13:30:55;;;;;;;13.50;5.28;;;10.90;80.80;;;;;;4664086;30;20064;-81
2023/02/23 13:33:30;;;;;;;11.38;4.40;;;10.80;80.70;;;;;;4670855;30;20192;-81
2023/02/23 13:36:11;;;;;;;18.23;5.57;;;10.80;80.60;;;;;;4670608;30;20092;-81
2023/02/23 13:38:58;;;;;;;26.45;11.75;;;10.80;80.80;;;;;;4649654;30;20426;-81
2023/02/23 13:41:47;;;;;;;12.15;5.63;;;10.90;80.40;;;;;;4669399;30;20662;-81
2023/02/23 13:44:48;;;;;;;26.17;12.80;;;10.80;80.40;;;;;;4685302;30;20065;-81
2023/02/23 13:47:44;;;;;;;13.18;7.45;;;10.00;80.20;;;;;;4666701;30;20053;-81
2023/02/23 13:50:46;;;;;;;13.65;7.05;;;10.30;80.10;;;;;;4672615;30;20208;-81
2023/02/23 13:53:33;;;;;;;12.70;5.13;;;10.80;80.00;;;;;;4658742;30;20063;-81
2023/02/23 13:56:07;;;;;;;12.77;4.78;;;10.80;80.90;;;;;;4669602;30;20404;-81
2023/02/23 13:58:44;;;;;;;10.77;4.18;;;10.70;80.60;;;;;;4660424;30;20053;-81
2023/02/23 14:01:35;;;;;;;11.48;5.10;;;10.80;81.70;;;;;;4642317;30;20061;-81
2023/02/23 14:04:13;;;;;;;9.48;3.65;;;10.80;81.50;;;;;;4657549;30;20769;-80
2023/02/23 14:06:57;;;;;;;11.90;4.75;;;10.70;81.30;;;;;;4677137;30;20061;-81
2023/02/23 14:09:30;;;;;;;13.77;4.50;;;10.70;81.40;;;;;;4664994;30;20753;-81
2023/02/23 14:12:10;;;;;;;20.55;5.07;;;10.60;81.20;;;;;;4656830;30;20069;-82
2023/02/23 14:14:41;;;;;;;12.88;6.72;;;10.70;81.60;;;;;;4659828;30;20061;-82
2023/02/23 14:17:34;;;;;;;11.43;5.03;;;10.70;81.60;;;;;;4661070;30;20052;-81
2023/02/23 14:20:18;;;;;;;;;;;10.70;82.40;;;;;;4681147;30;20088;-81
2023/02/23 14:23:20;;;;;;;12.27;4.43;;;11.00;81.80;;;;;;4703893;30;19930;-82
2023/02/23 14:26:14;;;;;;;48.08;21.17;;;10.70;81.70;;;;;;4683322;30;22488;-82
2023/02/23 14:28:45;;;;;;;;;;;10.60;81.10;;;;;;4664030;30;20057;-81
2023/02/23 14:31:14;;;;;;;49.65;24.02;;;10.60;81.20;;;;;;4682654;30;19942;-82
2023/02/23 14:33:42;;;;;;;62.08;30.67;;;10.70;81.60;;;;;;4680600;30;20064;-82
2023/02/23 14:36:21;;;;;;;20.70;9.98;;;10.70;81.40;;;;;;4671567;30;20045;-80
2023/02/23 14:39:24;;;;;;;15.52;7.63;;;10.70;81.00;;;;;;4651227;30;21247;-82
2023/02/23 14:41:53;;;;;;;;;;;10.80;82.20;;;;;;4663020;30;20633;-82